Time;durP1;ratioP1;P1;durP2;ratioP2;P2;SDS_P1;SDS_P2;PMS_P1;PMS_P2;Temp;Humidity;BMP_temperature;BMP_pressure;BME280_temperature;BME280_humidity;BME280_pressure;Samples;Min_cycle;Max_cycle;Signal;HPM_P1;HPM_P2
2023/04/07 00:01:32;;;;;;;1.25;0.60;;;6.60;99.90;;;;;;5045495;28;20044;-88
2023/04/07 00:03:57;;;;;;;0.55;0.55;;;6.60;99.90;;;;;;5045385;28;20458;-87
2023/04/07 00:06:23;;;;;;;1.33;1.23;;;6.70;99.90;;;;;;5045575;28;20375;-87
2023/04/07 00:08:49;;;;;;;1.45;0.77;;;6.60;99.90;;;;;;5044196;28;20056;-87
2023/04/07 00:11:14;;;;;;;3.00;2.10;;;6.70;99.90;;;;;;5045403;28;20037;-87
2023/04/07 00:13:40;;;;;;;0.25;0.25;;;6.60;99.90;;;;;;5045491;28;20037;-87
2023/04/07 00:16:06;;;;;;;2.35;1.65;;;6.60;99.90;;;;;;5043915;28;20053;-87
2023/04/07 00:18:32;;;;;;;1.73;1.60;;;6.70;99.90;;;;;;5045276;28;20045;-87
2023/04/07 00:20:57;;;;;;;0.13;0.13;;;6.60;99.90;;;;;;5045777;28;20048;-87
2023/04/07 00:23:23;;;;;;;3.60;1.45;;;6.60;99.90;;;;;;5045097;28;20049;-87
2023/04/07 00:25:49;;;;;;;1.27;1.02;;;6.60;99.90;;;;;;5044847;28;20079;-87
2023/04/07 00:28:14;;;;;;;3.13;1.73;;;6.80;99.90;;;;;;5045233;28;20049;-86
2023/04/07 00:30:40;;;;;;;1.38;1.08;;;6.60;99.90;;;;;;5043476;28;20487;-87
2023/04/07 00:33:06;;;;;;;1.60;1.10;;;6.60;99.90;;;;;;5047432;28;20057;-86
2023/04/07 00:35:31;;;;;;;6.57;1.15;;;6.60;99.90;;;;;;5049130;28;20147;-87
2023/04/07 00:37:58;;;;;;;0.68;0.68;;;6.60;99.90;;;;;;5049398;28;20494;-87
2023/04/07 00:40:23;;;;;;;0.45;0.45;;;6.60;99.90;;;;;;5048763;28;20526;-87
2023/04/07 00:42:49;;;;;;;1.58;1.20;;;6.60;99.90;;;;;;5050233;28;20037;-86
2023/04/07 00:45:15;;;;;;;0.73;0.73;;;6.60;99.90;;;;;;5050325;28;20513;-87
2023/04/07 00:47:40;;;;;;;3.13;1.17;;;6.60;99.90;;;;;;5049462;28;20060;-87
2023/04/07 00:50:07;;;;;;;0.68;0.68;;;6.60;99.90;;;;;;5048297;28;20461;-86
2023/04/07 00:52:33;;;;;;;1.98;1.85;;;6.60;99.90;;;;;;5050214;28;20487;-86
2023/04/07 00:54:59;;;;;;;1.25;1.15;;;6.60;99.90;;;;;;5048024;28;20055;-87
2023/04/07 00:57:25;;;;;;;0.82;0.82;;;6.60;99.90;;;;;;5050098;28;20060;-86
2023/04/07 00:59:52;;;;;;;2.25;1.42;;;6.60;99.90;;;;;;5048360;28;20041;-88
2023/04/07 01:02:35;;;;;;;4.85;2.33;;;6.70;99.90;;;;;;5050198;28;20073;-86
2023/04/07 01:05:19;;;;;;;2.25;1.27;;;6.60;99.90;;;;;;5048838;28;20049;-86
2023/04/07 01:08:02;;;;;;;5.50;2.00;;;6.60;99.90;;;;;;5049814;28;20049;-86
2023/04/07 01:10:59;;;;;;;1.50;1.00;;;6.60;99.90;;;;;;5048508;28;20126;-87
2023/04/07 01:13:48;;;;;;;1.58;1.48;;;6.60;99.90;;;;;;5048998;28;20060;-87
2023/04/07 01:16:30;;;;;;;1.48;1.38;;;6.60;99.90;;;;;;5046208;28;20064;-86
2023/04/07 01:19:03;;;;;;;23.48;1.75;;;6.60;99.90;;;;;;5047922;28;20418;-87
2023/04/07 01:21:33;;;;;;;0.77;0.70;;;6.70;99.90;;;;;;5048251;28;20052;-86
2023/04/07 01:24:18;;;;;;;0.47;0.43;;;6.60;99.90;;;;;;5047914;28;20080;-87
2023/04/07 01:26:46;;;;;;;3.05;1.80;;;6.60;99.90;;;;;;5047942;28;20076;-86
2023/04/07 01:29:40;;;;;;;2.47;1.48;;;6.60;99.90;;;;;;5046736;28;20063;-87
2023/04/07 01:32:09;;;;;;;6.07;1.98;;;6.60;99.90;;;;;;5049642;28;20520;-87
2023/04/07 01:34:37;;;;;;;2.33;2.10;;;6.60;99.90;;;;;;5049069;28;20067;-87
2023/04/07 01:37:03;;;;;;;0.63;0.63;;;6.60;99.90;;;;;;5047515;28;20064;-87
2023/04/07 01:39:30;;;;;;;1.30;1.20;;;6.60;99.90;;;;;;5049949;28;20094;-87
2023/04/07 01:41:57;;;;;;;1.27;1.17;;;6.60;99.90;;;;;;5048638;28;20052;-87
2023/04/07 01:44:24;;;;;;;5.05;1.95;;;7.60;99.90;;;;;;5049301;28;20080;-87
2023/04/07 01:46:50;;;;;;;1.88;1.55;;;6.60;99.90;;;;;;5049473;28;20052;-87
2023/04/07 01:49:17;;;;;;;1.65;1.55;;;6.60;99.90;;;;;;5050059;28;20053;-87
2023/04/07 01:51:48;;;;;;;1.48;1.13;;;6.60;99.90;;;;;;5049803;28;20144;-88
2023/04/07 01:54:15;;;;;;;0.68;0.68;;;6.60;99.90;;;;;;5049578;28;20057;-88
2023/04/07 01:56:40;;;;;;;4.60;1.55;;;6.60;99.90;;;;;;5049598;28;20109;-88
2023/04/07 01:59:06;;;;;;;2.45;0.35;;;6.60;99.90;;;;;;5049624;28;20040;-87
2023/04/07 02:01:32;;;;;;;1.45;1.35;;;6.60;99.90;;;;;;5049954;28;20073;-88
2023/04/07 02:04:04;;;;;;;3.53;3.22;;;6.60;99.90;;;;;;5050570;28;20048;-88
2023/04/07 02:06:43;;;;;;;1.90;1.77;;;7.00;99.90;;;;;;5049269;28;20121;-88
2023/04/07 02:09:11;;;;;;;2.58;1.90;;;6.60;99.90;;;;;;5048726;28;20074;-89
2023/04/07 02:11:40;;;;;;;0.68;0.68;;;6.60;99.90;;;;;;5049057;28;20088;-88
2023/04/07 02:14:08;;;;;;;2.25;1.15;;;6.70;99.90;;;;;;5049951;28;20096;-88
2023/04/07 02:16:34;;;;;;;1.50;1.38;;;6.60;99.90;;;;;;5049415;28;20084;-88
2023/04/07 02:19:02;;;;;;;5.20;1.77;;;6.70;99.90;;;;;;5049036;28;20158;-88
2023/04/07 02:21:29;;;;;;;1.67;1.33;;;6.60;99.90;;;;;;5049045;28;20131;-88
2023/04/07 02:23:55;;;;;;;1.13;1.02;;;6.60;99.90;;;;;;5048666;28;20049;-88
2023/04/07 02:26:21;;;;;;;0.82;0.80;;;6.60;99.90;;;;;;5047407;28;20092;-87
2023/04/07 02:28:46;;;;;;;1.73;1.15;;;6.60;99.90;;;;;;5048146;28;20076;-87
2023/04/07 02:31:12;;;;;;;2.53;1.77;;;6.70;99.90;;;;;;5047551;28;20518;-88
2023/04/07 02:33:38;;;;;;;1.15;1.08;;;6.60;99.90;;;;;;5048611;28;20053;-87
2023/04/07 02:36:04;;;;;;;0.75;0.73;;;6.60;99.90;;;;;;5048432;28;21015;-87
2023/04/07 02:38:31;;;;;;;2.15;1.52;;;6.60;99.90;;;;;;5047211;28;20076;-87
2023/04/07 02:40:57;;;;;;;1.48;1.27;;;6.70;99.90;;;;;;5046975;28;20041;-87
2023/04/07 02:43:24;;;;;;;0.30;0.30;;;6.60;99.90;;;;;;5046686;28;20453;-88
2023/04/07 02:45:50;;;;;;;1.35;1.02;;;6.70;99.90;;;;;;5047722;28;20396;-87
2023/04/07 02:48:15;;;;;;;0.80;0.80;;;6.60;99.90;;;;;;5046243;28;20528;-88
2023/04/07 02:50:41;;;;;;;0.45;0.45;;;6.70;99.90;;;;;;5048319;28;20068;-88
2023/04/07 02:53:07;;;;;;;4.72;1.40;;;6.60;99.90;;;;;;5046911;28;20558;-87
2023/04/07 02:55:32;;;;;;;5.47;1.73;;;6.70;99.90;;;;;;5046667;28;20110;-87
2023/04/07 02:57:58;;;;;;;1.45;1.08;;;6.70;99.90;;;;;;5047579;28;20069;-87
2023/04/07 03:00:24;;;;;;;6.68;2.00;;;6.70;99.90;;;;;;5047406;28;20041;-88
2023/04/07 03:02:50;;;;;;;1.55;1.25;;;6.70;99.90;;;;;;5047641;28;20052;-87
2023/04/07 03:05:16;;;;;;;1.00;0.80;;;6.70;99.90;;;;;;5047595;28;20620;-88
2023/04/07 03:07:42;;;;;;;0.82;0.82;;;6.70;99.90;;;;;;5045538;28;20049;-87
2023/04/07 03:10:08;;;;;;;0.88;0.82;;;6.60;99.90;;;;;;5046000;28;20066;-87
2023/04/07 03:12:34;;;;;;;1.27;1.15;;;6.60;99.90;;;;;;5047671;28;20056;-87
2023/04/07 03:14:59;;;;;;;1.30;1.10;;;6.70;99.90;;;;;;5046254;28;20048;-87
2023/04/07 03:17:25;;;;;;;2.92;2.25;;;6.70;99.90;;;;;;5045611;28;20080;-87
2023/04/07 03:19:51;;;;;;;1.25;1.15;;;6.70;99.90;;;;;;5045449;28;20072;-87
2023/04/07 03:22:16;;;;;;;1.33;1.10;;;6.60;99.90;;;;;;5047167;28;20091;-87
2023/04/07 03:24:42;;;;;;;2.20;1.77;;;6.70;99.90;;;;;;5046233;28;20540;-86
2023/04/07 03:27:08;;;;;;;2.92;1.35;;;7.60;99.90;;;;;;5029100;28;20140;-88
2023/04/07 03:29:34;;;;;;;1.65;1.15;;;6.60;99.90;;;;;;5045249;28;20048;-87
2023/04/07 03:31:59;;;;;;;3.80;2.50;;;6.70;99.90;;;;;;5047531;28;20399;-87
2023/04/07 03:34:25;;;;;;;4.20;2.42;;;6.60;99.90;;;;;;5045624;28;20132;-87
2023/04/07 03:36:52;;;;;;;0.47;0.32;;;6.70;99.90;;;;;;5047330;28;20278;-87
2023/04/07 03:39:17;;;;;;;1.60;1.50;;;6.60;99.90;;;;;;5047329;28;20045;-88
2023/04/07 03:41:43;;;;;;;1.95;1.75;;;6.70;99.90;;;;;;5045949;28;20510;-87
2023/04/07 03:44:09;;;;;;;0.63;0.63;;;6.70;99.90;;;;;;5045007;28;20395;-87
2023/04/07 03:46:34;;;;;;;2.80;0.82;;;6.60;99.90;;;;;;5046586;28;20049;-87
2023/04/07 03:49:00;;;;;;;1.92;1.63;;;6.60;99.90;;;;;;5046668;28;20132;-87
2023/04/07 03:51:26;;;;;;;2.85;2.40;;;6.60;99.90;;;;;;5046814;28;20056;-87
2023/04/07 03:53:52;;;;;;;1.42;1.23;;;6.60;99.90;;;;;;5046380;28;20118;-87
2023/04/07 03:56:18;;;;;;;2.17;1.85;;;6.60;99.90;;;;;;5047235;28;20048;-87
2023/04/07 03:58:45;;;;;;;1.40;1.30;;;6.60;99.90;;;;;;5045613;28;20052;-87
2023/04/07 04:01:11;;;;;;;3.28;1.55;;;6.60;99.90;;;;;;5045667;28;20064;-87
2023/04/07 04:03:36;;;;;;;0.40;0.40;;;6.60;99.90;;;;;;5046744;28;20067;-87
2023/04/07 04:06:02;;;;;;;0.52;0.52;;;6.60;99.90;;;;;;5045041;28;20084;-87
2023/04/07 04:08:29;;;;;;;2.78;1.55;;;6.60;99.90;;;;;;5048009;28;20052;-87
2023/04/07 04:10:56;;;;;;;1.38;1.27;;;6.60;99.90;;;;;;5049571;28;20107;-87
2023/04/07 04:13:21;;;;;;;1.70;1.02;;;6.60;99.90;;;;;;5049196;28;20060;-87
2023/04/07 04:15:47;;;;;;;1.00;0.68;;;6.60;99.90;;;;;;5049607;28;20451;-86
2023/04/07 04:18:13;;;;;;;2.15;1.02;;;6.60;99.90;;;;;;5048362;28;20127;-87
2023/04/07 04:20:39;;;;;;;0.70;0.70;;;6.60;99.90;;;;;;5049375;28;20547;-87
2023/04/07 04:23:04;;;;;;;1.63;1.52;;;6.60;99.90;;;;;;5049336;28;20108;-87
2023/04/07 04:25:30;;;;;;;2.25;0.98;;;6.50;99.90;;;;;;5048889;28;20120;-86
2023/04/07 04:27:56;;;;;;;1.65;1.55;;;6.50;99.90;;;;;;5049320;28;20057;-87
2023/04/07 04:30:21;;;;;;;0.40;0.40;;;6.50;99.90;;;;;;5049479;28;20048;-87
2023/04/07 04:32:48;;;;;;;5.13;0.50;;;6.50;99.90;;;;;;5049688;28;20495;-87
2023/04/07 04:35:14;;;;;;;1.10;1.00;;;7.70;99.90;;;;;;5049720;28;20605;-87
2023/04/07 04:37:40;;;;;;;0.52;0.52;;;6.50;99.90;;;;;;5049567;28;20076;-87
2023/04/07 04:40:07;;;;;;;1.23;1.13;;;6.50;99.90;;;;;;5047626;28;20076;-87
2023/04/07 04:42:33;;;;;;;0.65;0.65;;;6.50;99.90;;;;;;5048903;28;20068;-87
2023/04/07 04:44:59;;;;;;;1.48;1.17;;;6.50;99.90;;;;;;5030711;28;20049;-87
2023/04/07 04:47:25;;;;;;;0.95;0.93;;;6.50;99.90;;;;;;5049307;28;20053;-87
2023/04/07 04:49:51;;;;;;;0.70;0.70;;;6.50;99.90;;;;;;5048792;28;20075;-87
2023/04/07 04:52:17;;;;;;;1.60;1.50;;;6.50;99.90;;;;;;5048811;28;20494;-87
2023/04/07 04:54:42;;;;;;;1.25;0.80;;;6.50;99.90;;;;;;5046570;28;20049;-86
2023/04/07 04:57:08;;;;;;;0.80;0.80;;;6.50;99.90;;;;;;5049040;28;20045;-87
2023/04/07 04:59:34;;;;;;;2.47;1.27;;;6.50;99.90;;;;;;5050773;28;20049;-87
2023/04/07 05:01:59;;;;;;;0.90;0.75;;;6.50;99.90;;;;;;5049735;28;20049;-87
2023/04/07 05:04:27;;;;;;;0.55;0.47;;;6.50;99.90;;;;;;5050950;28;20114;-87
2023/04/07 05:06:52;;;;;;;1.83;1.63;;;6.50;99.90;;;;;;5050873;28;20163;-87
2023/04/07 05:09:18;;;;;;;7.13;2.45;;;6.50;99.90;;;;;;5049326;28;20231;-87
2023/04/07 05:11:44;;;;;;;1.85;0.95;;;6.50;99.90;;;;;;5050465;28;20045;-87
2023/04/07 05:14:10;;;;;;;1.20;0.65;;;6.50;99.90;;;;;;5049263;28;20125;-87
2023/04/07 05:16:35;;;;;;;1.40;1.15;;;7.20;99.90;;;;;;5050434;28;20144;-87
2023/04/07 05:19:01;;;;;;;0.88;0.82;;;6.50;99.90;;;;;;5048105;28;20045;-87
2023/04/07 05:21:27;;;;;;;1.23;1.13;;;6.50;99.90;;;;;;5050521;28;20069;-87
2023/04/07 05:23:53;;;;;;;3.13;2.38;;;6.50;99.90;;;;;;5048434;28;20406;-87
2023/04/07 05:26:20;;;;;;;0.77;0.77;;;6.50;99.90;;;;;;5049081;28;20469;-87
2023/04/07 05:28:46;;;;;;;1.63;1.10;;;6.50;99.90;;;;;;5048588;28;20060;-87
2023/04/07 05:31:11;;;;;;;1.27;1.17;;;6.50;99.90;;;;;;5050336;28;20498;-87
2023/04/07 05:33:37;;;;;;;1.30;1.20;;;6.50;99.90;;;;;;5049906;28;20128;-86
2023/04/07 05:36:03;;;;;;;1.85;1.10;;;6.50;99.90;;;;;;5049403;28;20049;-86
2023/04/07 05:38:29;;;;;;;0.68;0.68;;;6.50;99.90;;;;;;5049677;28;20056;-86
2023/04/07 05:40:55;;;;;;;2.40;1.63;;;6.50;99.90;;;;;;5050136;28;20049;-86
2023/04/07 05:43:20;;;;;;;1.90;1.20;;;6.50;99.90;;;;;;5050415;28;20045;-88
2023/04/07 05:45:46;;;;;;;1.83;1.25;;;6.50;99.90;;;;;;5049548;28;20506;-86
2023/04/07 05:48:12;;;;;;;1.27;1.02;;;6.50;99.90;;;;;;5049835;28;20048;-87
2023/04/07 05:50:37;;;;;;;2.42;1.20;;;7.00;99.90;;;;;;5049890;28;20048;-87
2023/04/07 05:53:03;;;;;;;0.20;0.20;;;6.50;99.90;;;;;;5050689;28;20048;-86
2023/04/07 05:55:29;;;;;;;0.90;0.63;;;6.50;99.90;;;;;;5048365;28;20040;-86
2023/04/07 05:57:56;;;;;;;0.57;0.57;;;6.50;99.90;;;;;;5049866;28;20064;-86
2023/04/07 06:00:21;;;;;;;2.63;1.48;;;6.50;99.90;;;;;;5050016;28;20048;-87
2023/04/07 06:02:47;;;;;;;1.60;1.45;;;6.50;99.90;;;;;;5050531;28;20041;-87
2023/04/07 06:05:13;;;;;;;1.58;1.23;;;6.50;99.90;;;;;;5049799;28;20410;-86
2023/04/07 06:07:38;;;;;;;1.23;1.17;;;6.50;99.90;;;;;;5049309;28;20052;-86
2023/04/07 06:10:05;;;;;;;2.58;1.35;;;6.50;99.90;;;;;;5049044;28;20048;-86
2023/04/07 06:12:30;;;;;;;2.47;1.67;;;6.50;99.90;;;;;;5050396;28;20045;-87
2023/04/07 06:14:56;;;;;;;2.45;1.42;;;6.60;99.90;;;;;;5050184;28;20045;-86
2023/04/07 06:17:22;;;;;;;1.10;0.88;;;6.60;99.90;;;;;;5049434;28;20098;-87
2023/04/07 06:19:48;;;;;;;5.85;1.35;;;6.60;99.90;;;;;;5048481;28;20088;-86
2023/04/07 06:22:14;;;;;;;0.28;0.28;;;6.60;99.90;;;;;;5045749;28;20495;-86
2023/04/07 06:24:40;;;;;;;0.65;0.65;;;6.70;99.90;;;;;;5042643;28;20084;-87
2023/04/07 06:27:06;;;;;;;1.85;1.65;;;6.70;99.90;;;;;;5043902;28;20518;-87
2023/04/07 06:29:32;;;;;;;4.28;0.90;;;6.70;99.90;;;;;;5044032;28;20064;-87
2023/04/07 06:31:58;;;;;;;3.15;1.38;;;6.70;99.90;;;;;;5042823;28;20057;-87
2023/04/07 06:34:24;;;;;;;3.25;1.75;;;6.70;99.90;;;;;;5042857;28;20067;-87
2023/04/07 06:36:50;;;;;;;2.50;2.13;;;6.80;99.90;;;;;;5043817;28;20449;-87
2023/04/07 06:39:16;;;;;;;1.02;0.68;;;6.80;99.90;;;;;;5043930;28;20041;-86
2023/04/07 06:41:42;;;;;;;1.02;0.73;;;6.90;99.90;;;;;;5026932;28;20052;-87
2023/04/07 06:44:10;;;;;;;1.48;0.82;;;6.90;99.90;;;;;;5043872;28;20084;-87
2023/04/07 06:46:36;;;;;;;1.90;1.00;;;6.90;99.90;;;;;;5043892;28;20045;-87
2023/04/07 06:49:02;;;;;;;2.33;1.25;;;6.90;99.90;;;;;;5043699;28;20537;-87
2023/04/07 06:51:28;;;;;;;1.45;1.35;;;7.00;99.90;;;;;;5042405;28;20068;-86
2023/04/07 06:53:54;;;;;;;0.75;0.75;;;7.00;99.90;;;;;;5043452;28;20434;-86
2023/04/07 06:56:22;;;;;;;1.60;1.40;;;7.00;99.90;;;;;;5042040;28;20045;-87
2023/04/07 06:58:47;;;;;;;1.80;1.65;;;7.10;99.90;;;;;;5041714;28;20048;-86
2023/04/07 07:01:13;;;;;;;2.50;1.23;;;8.20;99.90;;;;;;5042316;28;20072;-86
2023/04/07 07:03:39;;;;;;;1.83;1.73;;;7.20;99.90;;;;;;5043714;28;20376;-86
2023/04/07 07:06:04;;;;;;;1.80;1.70;;;7.20;99.90;;;;;;5041991;28;20052;-86
2023/04/07 07:08:31;;;;;;;2.97;1.73;;;7.20;99.90;;;;;;5043428;28;20143;-86
2023/04/07 07:10:56;;;;;;;2.35;1.55;;;7.30;99.90;;;;;;5043374;28;20064;-86
2023/04/07 07:13:25;;;;;;;0.77;0.60;;;7.30;99.90;;;;;;5043720;28;20494;-86
2023/04/07 07:15:51;;;;;;;1.42;1.17;;;7.40;99.90;;;;;;5041562;28;20127;-87
2023/04/07 07:18:17;;;;;;;2.45;1.90;;;7.50;99.90;;;;;;5043347;28;20131;-87
2023/04/07 07:20:43;;;;;;;0.68;0.60;;;7.60;99.90;;;;;;5043345;28;20049;-86
2023/04/07 07:23:09;;;;;;;0.57;0.40;;;7.60;99.90;;;;;;5041468;28;20047;-87
2023/04/07 07:25:35;;;;;;;1.23;1.08;;;7.60;99.90;;;;;;5042707;28;20510;-86
2023/04/07 07:28:01;;;;;;;2.70;1.27;;;7.60;99.90;;;;;;5041667;28;20076;-86
2023/04/07 07:30:26;;;;;;;0.30;0.30;;;7.70;99.90;;;;;;5041907;28;20159;-86
2023/04/07 07:32:53;;;;;;;0.73;0.73;;;8.00;99.90;;;;;;5043317;28;20454;-87
2023/04/07 07:35:20;;;;;;;3.03;1.23;;;9.10;99.90;;;;;;5042862;28;20106;-86
2023/04/07 07:37:46;;;;;;;5.85;1.30;;;7.70;99.90;;;;;;5043468;28;20392;-87
2023/04/07 07:40:12;;;;;;;1.25;1.15;;;8.10;99.90;;;;;;5042485;28;20060;-87
2023/04/07 07:42:38;;;;;;;3.63;1.23;;;8.10;99.90;;;;;;5042593;28;20119;-87
2023/04/07 07:45:04;;;;;;;1.30;1.08;;;7.90;99.90;;;;;;5042858;28;20167;-87
2023/04/07 07:47:30;;;;;;;2.13;0.90;;;7.90;99.90;;;;;;5042827;28;20409;-87
2023/04/07 07:49:56;;;;;;;1.25;1.15;;;7.90;99.90;;;;;;5043067;28;20048;-87
2023/04/07 07:52:22;;;;;;;0.82;0.68;;;7.80;99.90;;;;;;5042894;28;20376;-86
2023/04/07 07:54:49;;;;;;;0.52;0.52;;;7.80;99.90;;;;;;5024557;28;20070;-87
2023/04/07 07:57:15;;;;;;;0.43;0.30;;;7.80;99.90;;;;;;5042586;28;20520;-86
2023/04/07 07:59:40;;;;;;;1.33;1.23;;;7.80;99.90;;;;;;5040669;28;20095;-86
2023/04/07 08:02:09;;;;;;;0.65;0.60;;;7.80;99.90;;;;;;5042152;28;20119;-86
2023/04/07 08:04:36;;;;;;;0.75;0.73;;;7.80;99.90;;;;;;5040923;28;20048;-86
2023/04/07 08:07:02;;;;;;;1.45;1.17;;;7.90;99.90;;;;;;5042681;28;20095;-86
2023/04/07 08:09:29;;;;;;;1.45;1.27;;;7.90;99.90;;;;;;5041057;28;20053;-87
2023/04/07 08:11:54;;;;;;;1.50;1.02;;;7.90;99.90;;;;;;5042352;28;20056;-86
2023/04/07 08:14:20;;;;;;;1.58;1.48;;;8.00;99.90;;;;;;5042244;28;20063;-86
2023/04/07 08:16:46;;;;;;;0.88;0.75;;;8.00;99.90;;;;;;5042345;28;20581;-86
2023/04/07 08:19:12;;;;;;;0.65;0.60;;;8.00;99.90;;;;;;5040771;28;20051;-86
2023/04/07 08:21:38;;;;;;;0.65;0.52;;;8.20;99.90;;;;;;5041113;28;20102;-86
2023/04/07 08:24:05;;;;;;;1.67;1.55;;;8.40;99.90;;;;;;5042242;28;20041;-86
2023/04/07 08:26:31;;;;;;;2.55;2.25;;;8.50;99.90;;;;;;5041111;28;20044;-86
2023/04/07 08:28:57;;;;;;;1.95;0.90;;;8.40;99.90;;;;;;5042365;28;20123;-86
2023/04/07 08:31:24;;;;;;;0.50;0.50;;;8.40;99.90;;;;;;5042599;28;20120;-86
2023/04/07 08:33:53;;;;;;;1.88;1.77;;;8.60;99.90;;;;;;5041061;28;20049;-86
2023/04/07 08:36:21;;;;;;;0.55;0.55;;;8.60;99.90;;;;;;5042607;28;20057;-86
2023/04/07 08:38:47;;;;;;;1.30;0.77;;;8.60;1.00;;;;;;5042014;28;20041;-86
2023/04/07 08:41:19;;;;;;;1.27;1.17;;;8.70;99.90;;;;;;5041715;28;20044;-86
2023/04/07 08:43:48;;;;;;;1.58;1.02;;;8.80;51.00;;;;;;5041938;28;20124;-86
2023/04/07 08:46:16;;;;;;;0.95;0.85;;;8.90;99.90;;;;;;5025030;28;20049;-86
2023/04/07 08:48:43;;;;;;;1.08;0.98;;;9.10;99.90;;;;;;5040374;28;20057;-86
2023/04/07 08:51:12;;;;;;;1.52;1.42;;;9.30;99.90;;;;;;5042017;28;20048;-86
2023/04/07 08:53:51;;;;;;;1.98;1.15;;;9.50;99.90;;;;;;5040725;28;20045;-86
2023/04/07 08:56:17;;;;;;;1.65;1.55;;;9.80;1.00;;;;;;5044111;28;20155;-86
2023/04/07 08:58:47;;;;;;;1.35;0.98;;;9.90;99.90;;;;;;5045270;28;20136;-86
2023/04/07 09:01:14;;;;;;;4.20;1.85;;;11.10;1.00;;;;;;5044023;28;20053;-86
2023/04/07 09:03:43;;;;;;;2.17;1.73;;;10.10;99.90;;;;;;5045141;28;20458;-86
2023/04/07 09:06:12;;;;;;;5.18;1.17;;;10.20;99.90;;;;;;5045095;28;20521;-86
2023/04/07 09:08:37;;;;;;;0.77;0.73;;;10.00;99.90;;;;;;5044963;28;20051;-86
2023/04/07 09:11:03;;;;;;;1.20;1.10;;;9.90;1.00;;;;;;5045186;28;20048;-86
2023/04/07 09:13:30;;;;;;;1.35;1.20;;;10.20;99.90;;;;;;5045046;28;20049;-86
2023/04/07 09:15:58;;;;;;;2.28;0.68;;;10.10;99.90;;;;;;5044811;28;20049;-87
2023/04/07 09:18:23;;;;;;;1.42;1.00;;;10.10;1.00;;;;;;5045036;28;20056;-86
2023/04/07 09:21:01;;;;;;;1.10;1.00;;;9.90;99.90;;;;;;5044979;28;20521;-86
2023/04/07 09:23:40;;;;;;;3.05;1.35;;;10.10;99.90;;;;;;5044593;28;20087;-86
2023/04/07 09:26:23;;;;;;;0.63;0.63;;;10.20;1.00;;;;;;5044618;28;20044;-85
2023/04/07 09:28:54;;;;;;;2.60;1.42;;;10.30;98.10;;;;;;5044684;28;20091;-86
2023/04/07 09:31:20;;;;;;;3.67;2.45;;;10.20;99.90;;;;;;5044778;28;20295;-85
2023/04/07 09:33:50;;;;;;;3.17;1.75;;;10.60;27.40;;;;;;5043973;28;20378;-86
2023/04/07 09:36:16;;;;;;;1.98;1.45;;;10.80;99.90;;;;;;5043264;28;20063;-86
2023/04/07 09:38:44;;;;;;;1.27;0.95;;;11.90;24.70;;;;;;5044581;28;20116;-86
2023/04/07 09:41:12;;;;;;;1.40;1.00;;;10.50;99.90;;;;;;5043421;28;20053;-86
2023/04/07 09:43:55;;;;;;;6.82;1.70;;;10.00;99.90;;;;;;5044507;28;20048;-86
2023/04/07 09:46:21;;;;;;;1.17;1.08;;;9.90;99.90;;;;;;5042591;28;20053;-85
2023/04/07 09:48:47;;;;;;;1.60;0.85;;;9.70;86.20;;;;;;5043874;28;20407;-85
2023/04/07 09:51:16;;;;;;;1.45;1.35;;;9.70;99.90;;;;;;5044044;28;20148;-85
2023/04/07 09:53:43;;;;;;;8.77;2.65;;;10.70;7.90;;;;;;5043027;28;20057;-85
2023/04/07 09:56:10;;;;;;;5.72;1.77;;;9.70;55.10;;;;;;5042244;28;20053;-85
2023/04/07 09:58:40;;;;;;;1.38;1.13;;;9.80;1.00;;;;;;5043970;28;20079;-86
2023/04/07 10:01:08;;;;;;;0.73;0.73;;;9.90;1.00;;;;;;5043876;28;20053;-86
2023/04/07 10:03:35;;;;;;;0.22;0.22;;;9.90;1.00;;;;;;5044281;28;20124;-86
2023/04/07 10:06:01;;;;;;;0.50;0.47;;;10.40;99.90;;;;;;5043937;28;20048;-85
2023/04/07 10:08:27;;;;;;;0.47;0.47;;;11.00;99.90;;;;;;5042334;28;20088;-85
2023/04/07 10:10:54;;;;;;;1.67;1.15;;;11.00;99.90;;;;;;5042726;28;20041;-85
2023/04/07 10:13:20;;;;;;;1.35;1.00;;;11.50;11.00;;;;;;5043473;28;20053;-86
2023/04/07 10:15:47;;;;;;;2.70;1.48;;;11.40;99.90;;;;;;5043493;28;20045;-86
2023/04/07 10:18:14;;;;;;;0.95;0.73;;;11.30;99.90;;;;;;5043378;28;20123;-85
2023/04/07 10:20:41;;;;;;;0.55;0.55;;;11.50;99.90;;;;;;5043594;28;20247;-86
2023/04/07 10:23:16;;;;;;;1.08;0.75;;;11.50;99.90;;;;;;5043588;28;20090;-86
2023/04/07 10:25:44;;;;;;;1.60;0.98;;;11.50;99.90;;;;;;5042528;28;20399;-86
2023/04/07 10:28:12;;;;;;;3.13;0.93;;;11.80;99.90;;;;;;5043194;28;20045;-85
2023/04/07 10:30:39;;;;;;;1.38;1.05;;;11.60;99.90;;;;;;5042862;28;20048;-85
2023/04/07 10:33:04;;;;;;;0.90;0.75;;;11.70;99.90;;;;;;5043219;28;20049;-85
2023/04/07 10:36:08;;;;;;;1.48;1.30;;;11.30;1.00;;;;;;5042192;28;20572;-85
2023/04/07 10:38:35;;;;;;;0.28;0.28;;;11.80;92.90;;;;;;5060284;28;20036;-86
2023/04/07 10:41:36;;;;;;;0.13;0.13;;;11.00;99.90;;;;;;5043373;28;20064;-85
2023/04/07 10:44:07;;;;;;;3.30;1.02;;;11.00;99.90;;;;;;5041008;28;20477;-85
2023/04/07 10:47:03;;;;;;;0.17;0.17;;;11.00;99.90;;;;;;5041965;28;20080;-85
2023/04/07 10:49:29;;;;;;;1.92;1.30;;;11.20;99.90;;;;;;5042655;28;20426;-86
2023/04/07 10:52:13;;;;;;;2.70;0.95;;;11.00;99.90;;;;;;5043065;28;20055;-85
2023/04/07 10:54:40;;;;;;;1.55;0.90;;;11.10;99.90;;;;;;5042691;28;20454;-85
2023/04/07 10:57:12;;;;;;;2.40;0.20;;;11.10;98.00;;;;;;5042405;28;20059;-85
2023/04/07 10:59:57;;;;;;;0.63;0.52;;;11.30;94.90;;;;;;5042584;28;20056;-85
2023/04/07 11:02:23;;;;;;;1.70;1.35;;;11.60;1.00;;;;;;5042303;28;20605;-85
2023/04/07 11:04:48;;;;;;;1.05;0.70;;;12.20;1.00;;;;;;5042398;28;20088;-86
2023/04/07 11:07:15;;;;;;;0.55;0.43;;;13.30;1.00;;;;;;5042534;28;20120;-86
2023/04/07 11:09:41;;;;;;;6.93;1.67;;;12.40;1.00;;;;;;5042198;28;20472;-85
2023/04/07 11:12:07;;;;;;;0.60;0.57;;;12.60;99.90;;;;;;5042530;28;20457;-85
2023/04/07 11:14:36;;;;;;;4.07;1.23;;;12.20;99.90;;;;;;5042284;28;20045;-85
2023/04/07 11:17:02;;;;;;;0.70;0.70;;;12.30;1.00;;;;;;5023284;28;20523;-85
2023/04/07 11:19:31;;;;;;;1.77;0.55;;;12.10;1.00;;;;;;5042234;28;20059;-85
2023/04/07 11:22:15;;;;;;;2.15;1.58;;;13.10;1.00;;;;;;5042243;28;20041;-85
2023/04/07 11:24:42;;;;;;;3.63;1.98;;;12.60;99.90;;;;;;5042246;28;20132;-85
2023/04/07 11:27:14;;;;;;;0.95;0.75;;;12.80;99.90;;;;;;5042311;28;20052;-86
2023/04/07 11:29:40;;;;;;;2.13;0.50;;;14.00;99.90;;;;;;5042343;28;20411;-86
2023/04/07 11:32:06;;;;;;;0.82;0.60;;;13.00;99.90;;;;;;5042874;28;20048;-85
2023/04/07 11:34:34;;;;;;;0.45;0.45;;;13.60;99.90;;;;;;5040148;28;20076;-86
2023/04/07 11:37:23;;;;;;;1.50;0.98;;;13.50;99.90;;;;;;5042258;28;20102;-86
2023/04/07 11:39:57;;;;;;;4.80;0.30;;;13.70;99.90;;;;;;5042339;28;20068;-85
2023/04/07 11:42:36;;;;;;;1.40;1.02;;;13.70;99.90;;;;;;5042113;28;20056;-85
2023/04/07 11:45:03;;;;;;;1.25;0.40;;;13.20;99.90;;;;;;5040007;28;20513;-85
2023/04/07 11:47:36;;;;;;;0.63;0.57;;;12.70;99.90;;;;;;5041589;28;20514;-86
2023/04/07 11:50:02;;;;;;;1.08;0.35;;;12.60;99.90;;;;;;5041713;28;20049;-85
2023/04/07 11:52:39;;;;;;;0.63;0.55;;;12.70;99.90;;;;;;5042106;28;20045;-85
2023/04/07 11:55:05;;;;;;;1.08;0.95;;;13.10;99.90;;;;;;5041933;28;20621;-85
2023/04/07 11:57:31;;;;;;;0.68;0.57;;;13.50;99.90;;;;;;5041846;28;20383;-85
2023/04/07 12:00:10;;;;;;;1.25;0.90;;;13.70;99.90;;;;;;5041728;28;20367;-85
2023/04/07 12:02:37;;;;;;;0.17;0.17;;;14.40;99.90;;;;;;5041937;28;20049;-86
2023/04/07 12:05:03;;;;;;;1.15;0.82;;;14.40;99.90;;;;;;5041290;28;20048;-85
2023/04/07 12:07:29;;;;;;;0.32;0.30;;;14.80;99.90;;;;;;5041457;28;20041;-85
2023/04/07 12:09:56;;;;;;;0.77;0.65;;;15.10;99.90;;;;;;5041325;28;20056;-85
2023/04/07 12:12:29;;;;;;;0.63;0.57;;;14.80;99.90;;;;;;5041383;28;20056;-85
2023/04/07 12:14:55;;;;;;;0.93;0.82;;;14.40;99.90;;;;;;5041761;28;20072;-85
2023/04/07 12:17:22;;;;;;;0.32;0.32;;;13.70;99.90;;;;;;5041312;28;20057;-85
2023/04/07 12:19:48;;;;;;;0.20;0.20;;;14.10;99.90;;;;;;5041383;28;20519;-85
2023/04/07 12:22:13;;;;;;;0.38;0.32;;;13.10;99.90;;;;;;5042095;28;20056;-86
2023/04/07 12:24:39;;;;;;;0.55;0.47;;;13.90;99.90;;;;;;5041575;28;20495;-85
2023/04/07 12:27:05;;;;;;;0.43;0.28;;;13.30;99.90;;;;;;5041499;28;20049;-85
2023/04/07 12:29:31;;;;;;;5.97;0.88;;;13.50;99.90;;;;;;5044820;28;20049;-85
2023/04/07 12:31:57;;;;;;;0.73;0.68;;;13.90;99.90;;;;;;5045442;28;20049;-85
2023/04/07 12:34:22;;;;;;;0.75;0.70;;;14.70;99.90;;;;;;5045131;28;20063;-85
2023/04/07 12:36:48;;;;;;;1.50;0.93;;;14.10;99.90;;;;;;5045546;28;20079;-85
2023/04/07 12:39:15;;;;;;;0.55;0.55;;;13.80;99.90;;;;;;5045416;28;20052;-85
2023/04/07 12:41:40;;;;;;;0.70;0.70;;;13.70;99.90;;;;;;5043790;28;20116;-85
2023/04/07 12:44:06;;;;;;;0.30;0.30;;;13.60;99.90;;;;;;5046262;28;20585;-85
2023/04/07 12:46:32;;;;;;;0.47;0.22;;;13.50;99.90;;;;;;5047019;28;20053;-85
2023/04/07 12:48:58;;;;;;;0.57;0.47;;;14.20;99.90;;;;;;5061735;28;20101;-85
2023/04/07 12:51:25;;;;;;;0.20;0.20;;;13.50;99.90;;;;;;5067125;28;20159;-85
2023/04/07 12:53:50;;;;;;;0.52;0.50;;;13.90;99.90;;;;;;5070598;28;20048;-82
2023/04/07 12:56:16;;;;;;;2.70;1.80;;;13.90;99.90;;;;;;5091037;28;20031;-82
2023/04/07 12:58:42;;;;;;;1.00;0.43;;;13.60;99.90;;;;;;5092214;28;20039;-82